Pineland, FL

9:21 AM EDT on April 25, 2015 (GMT -0400)
Calusa Ridge | | Change Station
CLOSE
Current Station
Personal Weather Station
Location: Bokeelia, FL
Elevation: 13 ft
Nearby Weather Stations
Active Advisory: Beach Hazard Statement

Elev 13 ft 26.64 °N, 82.13 °W | Updated 10 minutes ago

Clear
Clear
81.5 °F
Feels Like 89 °F
N
5.0
Wind Variable Wind from SSW
Gusts 13.0 mph

Today
High -- | Low -- °F
--% Chance of Precip.
Yesterday
High -- | Low -- °F
Precip. -- in
6:55 AM 7:57 PM
Waxing Crescent, 46% visible
Pressure 29.95 in
Visibility 10.0 miles
Clouds Clear
Heat Index 89 °F
Dew Point 77 °F
Humidity 87%
Rainfall 0.00 in
Snow Depth Not available.
UV 3 out of 12
Pollen 7.80 out of 12
Air Quality Not available.
Flu Activity Local Activity
METAR KFMY 251253Z 16007KT 10SM CLR 26/22 A2994 RMK AO2 SLP141 T02560222

More Conditions Fewer Conditions

Pressure 29.95 in
Visibility 10.0 miles
Clouds Clear
Heat Index 89 °F
Dew Point 77 °F
Humidity 87%
Rainfall 0.00 in
Snow Depth Not available.
UV 3 out of 12
Pollen 7.80 out of 12
Air Quality Not available.
Flu Activity Local Activity
METAR KFMY 251253Z 16007KT 10SM CLR 26/22 A2994 RMK AO2 SLP141 T02560222

More Conditions Fewer Conditions

10-Day Weather Forecast

Almanac

Astronomy

Apr. 25, 2015 Rise Set
Actual Time
Civil Twilight
Nautical Twilight
Astronomical Twilight
Moon
Length of Visible Light
Length of Day
Tomorrow will be .
, % of the Moon is Illuminated

Today's Extremes

State Highs State Lows

Community

WunderPhotos

Upload Photos

1,816,663 photos uploaded!

WunderBlogs® & News

Nearby

Air Quality

  Air Quality AQ Index Pollutant
Not available.

Snow Depth

Station Depth Elevation

Earthquake Activity

City Distance Mag. Time & Date
Minimum magnitude displayed is 2.5.

Coastal Water Temperatures

Place Temperature

Stations

Nearby Weather Stations

Station Location Temp. Windchill Dew Point Humidity Wind Precip. Elev Updated Type
                   
Beach Hazard Statement
Statement as of 3:32 AM EDT on April 25, 2015

... Beach hazards statement remains in effect from 11 am EDT this
morning through Sunday evening...

* hazards... moderate risk of rip currents.

* Timing... late Saturday morning through Sunday evening.

* Impacts... rip currents will have the potential to be stronger
and more frequent through the weekend.

Precautionary/preparedness actions...

Rip currents are powerful channels of water flowing quickly away
from shore... which occur most often at low spots or breaks in The
Sandbar and in the vicinity of structures such as groins...
jetties and piers. Heed the advice of lifeguards and the beach
patrol. Pay attention to flags and posted signs.

If you become caught in a rip current... do not panic. Remain calm
and begin to swim parallel to shore. Once you are away from the
force of the rip current... begin to swim back to the beach. Do
not attempt to swim directly against a rip current. Even a strong
swimmer can become exhausted quickly.